createdAt,value
2018-04-20T04:09:38.246Z,44
2018-04-20T04:10:03.695Z,48
2018-04-20T04:10:29.215Z,48
2018-04-20T04:10:54.740Z,52
2018-04-20T04:11:20.228Z,52
2018-04-20T04:11:45.674Z,56
2018-04-20T04:12:11.080Z,60
2018-04-20T04:12:36.634Z,60
2018-04-20T04:13:02.173Z,68
2018-04-20T04:13:27.831Z,72
2018-04-20T04:13:53.377Z,72
2018-04-20T04:14:18.979Z,80
2018-04-20T04:14:44.551Z,80
2018-04-20T04:15:09.964Z,80
2018-04-20T04:15:35.548Z,84
2018-04-20T04:16:01.019Z,92
2018-04-20T04:16:26.454Z,96
2018-04-20T04:16:51.925Z,96
2018-04-20T04:17:17.514Z,100
2018-04-20T04:17:43.028Z,108
2018-04-20T04:18:08.504Z,112
2018-04-20T04:18:34.042Z,116
2018-04-20T04:18:59.662Z,124
2018-04-20T04:19:25.101Z,128
2018-04-20T04:19:50.591Z,132
2018-04-20T04:20:16.042Z,136
2018-04-20T04:20:41.591Z,144
2018-04-20T04:21:07.068Z,144
2018-04-20T04:21:32.631Z,152
2018-04-20T04:21:57.980Z,160
2018-04-20T04:22:23.522Z,164
2018-04-20T04:22:49.022Z,172
2018-04-20T04:23:14.479Z,180
2018-04-20T04:23:40.053Z,184
2018-04-20T04:24:05.593Z,192
2018-04-20T04:24:31.106Z,200
2018-04-20T04:24:56.613Z,204
2018-04-20T04:25:22.083Z,212
2018-04-20T04:25:47.634Z,216
2018-04-20T04:26:13.099Z,224
2018-04-20T04:26:38.555Z,232
2018-04-20T04:27:04.083Z,240
2018-04-20T04:27:29.581Z,244
2018-04-20T04:27:55.043Z,256
2018-04-20T04:28:20.464Z,264
2018-04-20T04:28:45.942Z,272
2018-04-20T04:29:11.387Z,284
2018-04-20T04:29:36.839Z,292
2018-04-20T04:30:02.368Z,300
2018-04-20T04:30:27.871Z,308
2018-04-20T04:30:53.376Z,320
2018-04-20T04:31:18.770Z,328
2018-04-20T04:31:44.326Z,340
2018-04-20T04:32:09.880Z,352
2018-04-20T04:32:35.436Z,360
2018-04-20T04:33:00.874Z,372
2018-04-20T04:33:26.350Z,384
2018-04-20T04:33:51.860Z,396
2018-04-20T04:34:17.334Z,408
2018-04-20T04:34:43.097Z,420
2018-04-20T04:35:08.589Z,436
2018-04-20T04:35:34.045Z,452
2018-04-20T04:35:59.648Z,460
2018-04-20T04:36:25.050Z,472
2018-04-20T04:36:50.572Z,488
2018-04-20T04:37:16.105Z,500
2018-04-20T04:37:43.345Z,512
2018-04-20T04:38:09.119Z,528
2018-04-20T04:38:34.757Z,540
2018-04-20T04:39:00.396Z,552
2018-04-20T04:39:25.967Z,572
2018-04-20T04:39:51.468Z,584
2018-04-20T04:40:17.099Z,604
2018-04-20T04:40:42.592Z,620
2018-04-20T04:41:08.074Z,636
2018-04-20T04:41:33.581Z,652
2018-04-20T04:41:59.086Z,668
2018-04-20T04:42:25.168Z,684
2018-04-20T04:42:51.104Z,704
2018-04-20T04:43:16.847Z,716
2018-04-20T04:43:43.518Z,736
2018-04-20T04:44:09.455Z,748
2018-04-20T04:44:35.547Z,768
2018-04-20T04:45:01.434Z,780
2018-04-20T04:45:27.758Z,796
2018-04-20T04:45:53.425Z,812
2018-04-20T04:46:19.304Z,824
2018-04-20T04:46:45.423Z,836
2018-04-20T04:47:11.295Z,856
2018-04-20T04:47:37.024Z,876
2018-04-20T04:48:02.589Z,896
2018-04-20T04:48:28.034Z,920
2018-04-20T04:48:53.839Z,944
2018-04-20T04:49:19.469Z,968
2018-04-20T04:49:45.229Z,992
2018-04-20T04:50:11.141Z,1012
2018-04-20T04:50:37.170Z,1032
2018-04-20T04:51:02.825Z,1052
2018-04-20T04:51:28.429Z,1072
2018-04-20T04:51:54.198Z,1092
2018-04-20T04:52:20.651Z,1112
2018-04-20T04:55:54.223Z,1288
2018-04-20T04:56:49.588Z,1336
2018-04-20T04:57:16.185Z,1360
2018-04-20T04:57:44.182Z,1384
2018-04-20T04:58:11.377Z,1404
2018-04-20T04:58:38.844Z,1424
2018-04-20T04:59:04.619Z,1448
2018-04-20T04:59:30.691Z,1468
2018-04-20T04:59:56.923Z,1484
2018-04-20T05:00:24.216Z,1508
2018-04-20T05:00:53.317Z,1532
2018-04-20T05:01:18.718Z,1548
2018-04-20T05:01:44.512Z,1564
2018-04-20T05:02:10.289Z,1584
2018-04-20T05:02:35.718Z,1604
2018-04-20T05:03:01.192Z,1628
2018-04-20T05:03:26.868Z,1648
2018-04-20T05:03:52.355Z,1660
2018-04-20T05:04:17.808Z,1676
2018-04-20T05:04:43.363Z,1692
2018-04-20T05:05:08.894Z,1704
2018-04-20T05:05:34.433Z,1720
2018-04-20T05:06:00.102Z,1736
2018-04-20T05:06:25.700Z,1756
2018-04-20T05:06:51.561Z,1772
2018-04-20T05:07:17.234Z,1792
2018-04-20T05:07:42.707Z,1808
2018-04-20T05:08:08.219Z,1832
2018-04-20T05:08:33.863Z,1856
2018-04-20T05:08:59.398Z,1876
2018-04-20T05:09:25.505Z,1900
2018-04-20T05:09:51.648Z,1924
2018-04-20T05:10:17.677Z,1948
2018-04-20T05:10:43.082Z,1972
2018-04-20T05:11:08.471Z,2000
2018-04-20T05:11:34.014Z,2024
2018-04-20T05:11:59.807Z,2048
2018-04-20T05:12:25.101Z,2072
2018-04-20T05:12:50.624Z,2096
2018-04-20T05:13:16.067Z,2120
2018-04-20T05:13:41.605Z,2148
2018-04-20T05:14:07.031Z,2168
2018-04-20T05:14:32.560Z,2188
2018-04-20T05:14:58.262Z,2212
2018-04-20T05:15:23.708Z,2236
2018-04-20T05:15:49.219Z,2256
2018-04-20T05:16:14.714Z,2276
2018-04-20T05:16:40.251Z,2296
2018-04-20T05:17:05.778Z,2316
2018-04-20T05:17:31.268Z,2336
2018-04-20T05:17:56.735Z,2360
2018-04-20T05:18:22.163Z,2388
2018-04-20T05:18:47.644Z,2412
2018-04-20T05:19:13.174Z,2448
2018-04-20T05:19:38.678Z,2484
2018-04-20T05:20:04.172Z,2588
2018-04-20T05:20:29.785Z,2624
2018-04-20T05:20:55.430Z,2660
2018-04-20T05:21:23.730Z,2696
2018-04-20T05:21:49.592Z,2720
2018-04-20T05:22:15.227Z,2748
2018-04-20T05:22:40.955Z,2772
2018-04-20T05:23:06.884Z,2792
2018-04-20T05:23:32.449Z,2816
2018-04-20T05:23:58.108Z,2844
2018-04-20T05:24:25.301Z,2872
2018-04-20T05:24:50.894Z,2892
2018-04-20T05:25:17.227Z,2924
2018-04-20T05:25:42.160Z,2948
2018-04-20T05:26:07.667Z,2976
2018-04-20T05:26:33.487Z,3016
2018-04-20T05:26:58.999Z,3052
2018-04-20T05:27:24.455Z,3088
2018-04-20T05:27:50.104Z,3132
2018-04-20T05:28:15.494Z,3168
2018-04-20T05:28:41.325Z,3204
2018-04-20T05:29:07.486Z,3240
2018-04-20T05:29:35.176Z,3272
2018-04-20T05:30:00.788Z,3300
2018-04-20T05:30:26.379Z,3324
2018-04-20T05:30:52.167Z,3348
2018-04-20T05:31:17.566Z,3368
2018-04-20T05:31:43.734Z,3396
2018-04-20T05:32:08.658Z,3420
2018-04-20T05:32:34.225Z,3440
2018-04-20T05:32:59.772Z,3460
2018-04-20T05:33:25.484Z,3488
2018-04-20T05:33:51.121Z,3508
2018-04-20T05:34:16.928Z,3528
2018-04-20T05:34:42.507Z,3548
2018-04-20T05:35:08.612Z,3564
2018-04-20T05:35:34.513Z,3588
2018-04-20T05:36:00.432Z,3612
2018-04-20T05:36:27.999Z,3640
2018-04-20T05:36:57.095Z,3668
2018-04-20T05:37:24.057Z,3692
2018-04-20T05:38:52.293Z,3768
2018-04-20T05:39:17.226Z,3784
2018-04-20T05:39:43.242Z,3800
2018-04-20T05:40:08.575Z,3812
2018-04-20T05:40:34.392Z,3832
2018-04-20T05:40:59.947Z,3856
2018-04-20T05:41:25.658Z,3876
2018-04-20T05:41:51.324Z,3900
2018-04-20T05:42:17.021Z,3920
2018-04-20T05:42:42.548Z,3940
2018-04-20T05:43:08.451Z,3960
2018-04-20T05:43:34.081Z,3984
2018-04-20T05:44:00.037Z,4012
2018-04-20T05:44:25.570Z,4036
2018-04-20T05:44:51.188Z,4060
2018-04-20T05:45:16.873Z,4092
2018-04-20T05:45:42.838Z,4116
2018-04-20T05:46:08.671Z,4140
2018-04-20T05:46:34.197Z,4168
2018-04-20T05:46:59.861Z,4188
2018-04-20T05:47:25.479Z,4216
2018-04-20T05:47:51.901Z,4240
2018-04-20T05:48:16.946Z,4272
2018-04-20T05:48:42.532Z,4296
2018-04-20T05:49:08.468Z,4316
2018-04-20T05:49:34.055Z,4344
2018-04-20T05:49:59.721Z,4368
2018-04-20T05:50:25.256Z,4388
2018-04-20T05:50:51.709Z,4392
2018-04-20T05:51:17.128Z,4384
2018-04-20T05:51:43.019Z,4348
2018-04-20T05:52:08.307Z,4312
2018-04-20T05:52:34.210Z,4296
2018-04-20T05:52:59.862Z,4312
2018-04-20T05:53:25.853Z,4352
2018-04-20T05:53:51.288Z,4400
2018-04-20T05:54:16.820Z,4432
2018-04-20T05:54:42.627Z,4468
2018-04-20T05:55:08.376Z,4528
2018-04-20T05:55:33.965Z,4592
2018-04-20T05:56:00.404Z,4656
2018-04-20T05:56:25.182Z,4712
2018-04-20T05:56:50.887Z,4748
2018-04-20T05:57:16.527Z,4776
2018-04-20T05:57:42.727Z,4800
2018-04-20T05:58:08.297Z,4828
2018-04-20T05:58:33.952Z,4852
2018-04-20T05:58:59.573Z,4876
2018-04-20T05:59:25.182Z,4900
2018-04-20T05:59:51.059Z,4920
2018-04-20T06:00:16.808Z,4948
2018-04-20T06:00:42.119Z,4968
2018-04-20T06:01:07.776Z,4988
2018-04-20T06:01:33.213Z,5004
2018-04-20T06:01:58.857Z,5012
2018-04-20T06:02:24.531Z,5020
2018-04-20T06:02:50.339Z,5000
2018-04-20T06:03:15.952Z,4976
2018-04-20T06:03:41.632Z,4948
2018-04-20T06:04:07.204Z,4932
2018-04-20T06:04:32.825Z,4928
2018-04-20T06:04:58.818Z,4936
2018-04-20T06:05:24.325Z,4944
2018-04-20T06:05:50.083Z,4940
2018-04-20T06:06:15.947Z,4952
2018-04-20T06:06:41.583Z,4980
2018-04-20T06:07:07.143Z,5004
2018-04-20T06:07:32.754Z,4988
2018-04-20T06:07:58.536Z,4980
2018-04-20T06:08:24.337Z,4984
2018-04-20T06:08:49.787Z,5024
2018-04-20T06:09:15.548Z,5088
2018-04-20T06:09:40.964Z,5152
2018-04-20T06:10:06.533Z,5188
2018-04-20T06:10:32.036Z,5204
2018-04-20T06:10:57.580Z,5228
2018-04-20T06:11:22.989Z,5248
2018-04-20T06:11:48.473Z,5260
2018-04-20T06:12:14.061Z,5272
2018-04-20T06:12:39.724Z,5288
2018-04-20T06:13:05.141Z,5304
2018-04-20T06:13:30.675Z,5316
2018-04-20T06:13:56.314Z,5324
2018-04-20T06:14:21.825Z,5328
2018-04-20T06:14:47.327Z,5328
2018-04-20T06:15:13.037Z,5324
2018-04-20T06:15:38.707Z,5280
2018-04-20T06:16:04.035Z,5200
2018-04-20T06:16:29.542Z,5180
2018-04-20T06:16:55.115Z,5220
2018-04-20T06:17:20.618Z,5320
2018-04-20T06:17:46.190Z,5416
2018-04-20T06:18:11.606Z,5472
2018-04-20T06:18:37.113Z,5500
2018-04-20T06:19:02.629Z,5528
2018-04-20T06:19:28.115Z,5536
2018-04-20T06:19:53.784Z,5552
2018-04-20T06:20:19.775Z,5568
2018-04-20T06:20:45.517Z,5580
2018-04-20T06:21:11.642Z,5600
2018-04-20T06:21:37.846Z,5616
2018-04-20T06:22:03.371Z,5628
2018-04-20T06:22:29.480Z,5648
2018-04-20T06:22:55.034Z,5668
2018-04-20T06:23:20.568Z,5676
2018-04-20T06:23:46.179Z,5688
2018-04-20T06:24:11.811Z,5704
2018-04-20T06:24:37.474Z,5728
2018-04-20T06:25:02.962Z,5740
2018-04-20T06:25:28.632Z,5748
2018-04-20T06:25:54.092Z,5768
2018-04-20T06:26:19.657Z,5788
2018-04-20T06:26:45.356Z,5788
2018-04-20T06:27:11.007Z,5820
2018-04-20T06:27:36.687Z,5844
2018-04-20T06:28:02.087Z,5872
2018-04-20T06:28:28.083Z,5912
2018-04-20T06:28:54.100Z,6008
2018-04-20T06:29:20.021Z,6356
2018-04-20T06:29:45.362Z,6776
2018-04-20T06:30:11.005Z,7152
2018-04-20T06:30:36.624Z,7280
2018-04-20T06:31:02.369Z,6868
2018-04-20T06:31:27.934Z,6624
2018-04-20T06:31:53.624Z,6584
2018-04-20T06:32:19.180Z,6616
2018-04-20T06:32:44.800Z,6712
2018-04-20T06:33:10.281Z,6840
2018-04-20T06:33:35.899Z,6964
2018-04-20T06:34:01.705Z,7116
2018-04-20T06:34:27.452Z,7320
2018-04-20T06:34:52.932Z,7816
2018-04-20T06:35:18.588Z,8760
2018-04-20T06:35:44.213Z,10124
2018-04-20T06:36:09.878Z,11688
2018-04-20T06:36:35.450Z,13192
2018-04-20T06:37:01.099Z,15008
2018-04-20T06:37:26.594Z,16288
2018-04-20T06:37:52.232Z,16864
2018-04-20T06:38:17.686Z,17504
2018-04-20T06:38:43.404Z,18016
2018-04-20T06:39:09.096Z,18112
2018-04-20T06:39:34.787Z,18592
2018-04-20T06:40:00.180Z,18400
2018-04-20T06:40:25.777Z,18080
2018-04-20T06:40:51.528Z,17664
2018-04-20T06:41:17.037Z,17760
2018-04-20T06:41:42.690Z,18208
2018-04-20T06:42:08.193Z,18912
2018-04-20T06:42:33.684Z,19680
2018-04-20T06:42:59.587Z,20160
2018-04-20T06:43:24.998Z,20320
2018-04-20T06:43:50.752Z,19744
2018-04-20T06:44:16.555Z,19072
2018-04-20T06:44:42.081Z,18240
2018-04-20T06:45:07.741Z,17504
2018-04-20T06:45:33.220Z,17120
2018-04-20T06:45:58.823Z,16960
2018-04-20T06:46:24.413Z,16896
2018-04-20T06:46:49.891Z,16288
2018-04-20T06:47:15.387Z,15168
2018-04-20T06:47:41.058Z,13596
2018-04-20T06:48:06.676Z,12104
2018-04-20T06:48:32.517Z,10528
2018-04-20T06:48:58.247Z,9120
2018-04-20T06:49:23.868Z,8112
2018-04-20T06:49:49.413Z,7380
2018-04-20T06:50:15.105Z,7128
2018-04-20T06:50:40.823Z,7032
2018-04-20T06:51:06.315Z,6984
2018-04-20T06:51:31.834Z,6964
2018-04-20T06:51:57.371Z,6948
2018-04-20T06:52:22.894Z,6940
2018-04-20T06:52:48.496Z,6936
2018-04-20T06:53:14.024Z,6936
2018-04-20T06:53:39.649Z,6936
2018-04-20T06:54:05.511Z,6940
2018-04-20T06:54:30.998Z,6928
2018-04-20T06:54:56.578Z,6928
2018-04-20T06:55:22.385Z,6928
2018-04-20T06:55:48.016Z,6932
2018-04-20T06:56:13.643Z,6928
2018-04-20T06:56:39.429Z,6928
2018-04-20T06:57:04.973Z,6928
2018-04-20T06:57:30.713Z,6916
2018-04-20T06:57:56.670Z,6920
2018-04-20T06:58:22.456Z,6916
2018-04-20T06:58:48.107Z,6920
2018-04-20T06:59:14.040Z,6924
2018-04-20T06:59:39.774Z,6920
2018-04-20T07:00:05.371Z,6924
2018-04-20T07:00:31.151Z,6928
2018-04-20T07:00:57.028Z,6924
2018-04-20T07:01:22.640Z,6920
2018-04-20T07:01:48.087Z,6904
2018-04-20T07:02:13.957Z,6848
2018-04-20T07:02:39.545Z,6820
2018-04-20T07:03:05.664Z,6844
2018-04-20T07:03:31.612Z,6860
2018-04-20T07:03:57.094Z,6860
2018-04-20T07:04:23.091Z,6876
2018-04-20T07:05:06.923Z,6888
2018-04-20T07:05:42.551Z,6912
2018-04-20T07:07:22.274Z,6968
2018-04-20T07:07:48.135Z,6968
2018-04-20T07:08:13.613Z,6968
2018-04-20T07:08:39.312Z,6964
2018-04-20T07:09:04.828Z,6956
2018-04-20T07:09:30.433Z,6956
2018-04-20T07:09:55.948Z,6948
2018-04-20T07:10:21.524Z,6944
2018-04-20T07:10:47.501Z,6940
2018-04-20T07:11:13.090Z,6932
2018-04-20T07:11:38.736Z,6928
2018-04-20T07:12:04.431Z,6928
2018-04-20T07:12:30.121Z,6932
2018-04-20T07:12:56.004Z,6936
2018-04-20T07:13:21.590Z,6940
2018-04-20T07:13:47.338Z,6940
2018-04-20T07:14:13.117Z,6944
2018-04-20T07:14:38.374Z,6936
2018-04-20T07:15:03.993Z,6940
2018-04-20T07:15:29.545Z,6940
2018-04-20T07:15:55.049Z,6944
2018-04-20T07:16:20.991Z,6940
2018-04-20T07:16:46.502Z,6940
2018-04-20T07:17:12.233Z,6932
2018-04-20T07:17:37.805Z,6932
2018-04-20T07:18:03.408Z,6936
2018-04-20T07:18:29.622Z,6928
2018-04-20T07:18:55.136Z,6932
2018-04-20T07:19:20.637Z,6936
2018-04-20T07:19:46.226Z,6940
2018-04-20T07:20:11.853Z,6944
2018-04-20T07:20:37.435Z,6944
2018-04-20T07:21:03.144Z,6948
2018-04-20T07:21:28.530Z,6944
2018-04-20T07:21:54.200Z,6944
2018-04-20T07:22:19.624Z,6944
2018-04-20T07:22:45.205Z,6944
2018-04-20T07:23:10.721Z,6944
2018-04-20T07:23:36.414Z,6948
2018-04-20T07:24:02.007Z,6952
2018-04-20T07:24:27.719Z,6952
2018-04-20T07:24:53.230Z,6952
2018-04-20T07:25:19.162Z,6956
2018-04-20T07:25:44.826Z,6956
2018-04-20T07:26:10.466Z,6956
2018-04-20T07:26:36.093Z,6956
2018-04-20T07:27:01.713Z,6964
2018-04-20T07:27:27.340Z,6968
2018-04-20T07:27:53.002Z,6964
2018-04-20T07:28:18.587Z,6968
2018-04-20T07:28:44.272Z,6972
2018-04-20T07:29:09.948Z,6976
2018-04-20T07:29:35.843Z,6980
2018-04-20T07:30:01.278Z,6984
2018-04-20T07:30:27.051Z,6988
2018-04-20T07:30:52.656Z,6992
2018-04-20T07:31:18.183Z,6992
2018-04-20T07:31:43.658Z,6992
2018-04-20T07:32:09.559Z,7000
2018-04-20T07:32:35.020Z,7008
2018-04-20T07:33:00.738Z,7008
2018-04-20T07:42:03.018Z,7032
2018-04-20T07:42:28.763Z,7028
2018-04-20T07:42:54.567Z,7036
2018-04-20T07:43:20.213Z,7032
2018-04-20T07:43:45.796Z,7028
2018-04-20T07:44:11.441Z,7032
2018-04-20T07:44:37.294Z,7036
2018-04-20T07:45:02.861Z,7028
2018-04-20T07:45:28.682Z,7024
2018-04-20T07:45:54.161Z,7020
2018-04-20T07:46:20.080Z,7004
2018-04-20T07:46:45.708Z,6996
2018-04-20T07:47:11.101Z,6980
2018-04-20T07:47:36.647Z,6976
2018-04-20T07:48:02.281Z,6972
2018-04-20T07:48:27.998Z,6972
2018-04-20T07:48:53.550Z,6968
2018-04-20T07:49:19.216Z,6964
2018-04-20T07:49:44.999Z,6972
2018-04-20T07:50:10.546Z,6980
2018-04-20T07:50:36.172Z,6976
2018-04-20T07:51:01.817Z,6976
2018-04-20T07:51:27.612Z,6976
2018-04-20T07:51:53.052Z,6972
2018-04-20T07:52:18.829Z,6976
2018-04-20T07:52:44.372Z,6972
2018-04-20T07:53:10.137Z,6972
2018-04-20T07:53:35.669Z,6972
2018-04-20T07:54:01.194Z,6968
2018-04-20T07:54:26.787Z,6964
2018-04-20T07:54:52.607Z,6960
2018-04-20T07:55:18.118Z,6960
2018-04-20T07:55:43.801Z,6952
2018-04-20T07:56:09.523Z,6948
2018-04-20T07:56:35.215Z,6944
2018-04-20T07:57:00.884Z,6948
2018-04-20T07:57:26.337Z,6944
2018-04-20T07:57:52.101Z,6936
2018-04-20T07:58:17.737Z,6932
2018-04-20T07:58:43.444Z,6936
2018-04-20T07:59:08.907Z,6936
2018-04-20T07:59:34.593Z,6932
2018-04-20T08:00:00.688Z,6932
2018-04-20T08:00:26.193Z,6924
2018-04-20T08:00:51.784Z,6916
2018-04-20T08:01:17.337Z,6912
2018-04-20T08:01:42.824Z,6916
2018-04-20T08:02:08.488Z,6908
2018-04-20T08:02:33.983Z,6904
2018-04-20T08:02:59.627Z,6904
2018-04-20T08:03:25.233Z,6904
2018-04-20T08:03:50.701Z,6908
2018-04-20T08:04:16.502Z,6904
2018-04-20T08:04:41.955Z,6900
2018-04-20T08:05:07.521Z,6900
2018-04-20T08:05:33.111Z,6896
2018-04-20T08:05:58.550Z,6888
2018-04-20T08:06:24.124Z,6880
2018-04-20T08:06:49.790Z,6884
2018-04-20T08:07:15.305Z,6876
2018-04-20T08:07:40.912Z,6868
2018-04-20T08:08:06.641Z,6864
2018-04-20T08:08:32.381Z,6864
2018-04-20T08:08:57.836Z,6852
2018-04-20T08:09:23.566Z,6836
2018-04-20T08:09:49.130Z,6832
2018-04-20T08:10:14.814Z,6836
2018-04-20T08:10:40.411Z,6828
2018-04-20T08:11:05.928Z,6816
2018-04-20T08:11:31.723Z,6812
2018-04-20T08:11:57.018Z,6796
2018-04-20T08:12:22.537Z,6780
2018-04-20T08:12:48.194Z,6764
2018-04-20T08:13:13.617Z,6752
2018-04-20T08:13:39.324Z,6744
2018-04-20T08:14:04.743Z,6732
2018-04-20T08:14:30.422Z,6728
2018-04-20T08:14:56.153Z,6724
2018-04-20T08:15:21.595Z,6720
2018-04-20T08:15:47.208Z,6720
2018-04-20T08:16:12.815Z,6712
2018-04-20T08:16:38.486Z,6704
2018-04-20T08:17:04.035Z,6700
2018-04-20T08:17:29.787Z,6696
2018-04-20T08:17:55.442Z,6684
2018-04-20T08:18:21.099Z,6680
2018-04-20T08:18:46.720Z,6668
2018-04-20T08:19:12.312Z,6660
2018-04-20T08:19:38.348Z,6648
2018-04-20T08:20:03.883Z,6644
2018-04-20T08:20:29.316Z,6644
2018-04-20T08:20:54.760Z,6636
2018-04-20T08:21:20.343Z,6628
2018-04-20T08:21:46.361Z,6628
2018-04-20T08:22:11.742Z,6616
2018-04-20T08:22:37.343Z,6612
2018-04-20T08:23:02.929Z,6600
2018-04-20T08:23:28.429Z,6604
2018-04-20T08:23:54.041Z,6600
2018-04-20T08:24:19.541Z,6600
2018-04-20T08:24:45.191Z,6588
2018-04-20T08:25:10.918Z,6592
2018-04-20T08:25:36.336Z,6596
2018-04-20T08:26:02.089Z,6592
2018-04-20T08:26:27.722Z,6580
2018-04-20T08:26:53.335Z,6552
2018-04-20T08:27:19.022Z,6540
2018-04-20T08:27:44.664Z,6520
2018-04-20T08:28:10.668Z,6500
2018-04-20T08:28:36.108Z,6468
2018-04-20T08:29:01.848Z,6476
2018-04-20T08:29:27.352Z,6468
2018-04-20T08:29:52.911Z,6444
2018-04-20T08:30:18.475Z,6436
2018-04-20T08:30:44.037Z,6408
2018-04-20T08:31:09.619Z,6376
2018-04-20T08:31:35.204Z,6372
2018-04-20T08:32:00.856Z,6360
2018-04-20T08:32:26.758Z,6352
2018-04-20T08:32:52.355Z,6352
2018-04-20T08:33:18.106Z,6344
2018-04-20T08:33:43.614Z,6344
2018-04-20T08:34:09.415Z,6348
2018-04-20T08:34:34.989Z,6348
2018-04-20T08:35:00.523Z,6348
2018-04-20T08:35:26.116Z,6352
2018-04-20T08:35:51.607Z,6360
2018-04-20T08:36:17.154Z,6360
2018-04-20T08:36:42.781Z,6368
2018-04-20T08:37:08.345Z,6368
2018-04-20T08:37:33.936Z,6380
2018-04-20T08:37:59.486Z,6388
2018-04-20T08:38:25.118Z,6392
2018-04-20T08:38:50.544Z,6396
2018-04-20T08:39:16.152Z,6408
2018-04-20T08:39:41.650Z,6412
2018-04-20T08:40:07.145Z,6420
2018-04-20T08:40:32.751Z,6424
2018-04-20T08:40:58.557Z,6428
2018-04-20T08:41:24.213Z,6432
2018-04-20T08:41:49.921Z,6424
2018-04-20T08:42:15.625Z,6424
2018-04-20T08:42:41.122Z,6436
2018-04-20T08:43:06.763Z,6440
2018-04-20T08:43:32.562Z,6444
2018-04-20T08:43:58.390Z,6444
2018-04-20T08:44:23.907Z,6436
2018-04-20T08:44:49.507Z,6440
2018-04-20T08:45:15.348Z,6424
2018-04-20T08:45:40.838Z,6412
2018-04-20T08:46:06.370Z,6400
2018-04-20T08:46:32.139Z,6388
2018-04-20T08:46:57.678Z,6368
2018-04-20T08:47:23.227Z,6320
2018-04-20T08:47:48.795Z,6308
2018-04-20T08:48:14.393Z,6280
2018-04-20T08:48:39.912Z,6252
2018-04-20T08:49:05.655Z,6248
2018-04-20T08:49:31.129Z,6244
2018-04-20T08:49:56.795Z,6240
2018-04-20T08:50:22.301Z,6240
2018-04-20T08:50:47.884Z,6248
2018-04-20T08:51:13.365Z,6244
2018-04-20T08:51:39.059Z,6228
2018-04-20T08:52:04.737Z,6224
2018-04-20T08:52:30.318Z,6212
2018-04-20T08:52:55.948Z,6212
2018-04-20T08:53:21.773Z,6204
2018-04-20T08:53:47.436Z,6204
2018-04-20T08:54:13.046Z,6192
2018-04-20T08:54:38.427Z,6172
2018-04-20T08:55:04.137Z,6160
2018-04-20T08:55:29.583Z,6144
2018-04-20T08:55:55.166Z,6132
2018-04-20T08:56:21.243Z,6120
2018-04-20T08:56:46.820Z,6104
2018-04-20T08:57:12.373Z,6088
2018-04-20T08:57:38.126Z,6072
2018-04-20T08:58:03.634Z,6072
2018-04-20T08:58:29.393Z,6072
2018-04-20T08:58:54.980Z,6076
2018-04-20T08:59:20.569Z,6080
2018-04-20T08:59:46.258Z,6076
2018-04-20T09:00:11.743Z,6048
2018-04-20T09:00:37.350Z,5988
2018-04-20T09:01:02.771Z,5960
2018-04-20T09:01:28.478Z,5988
2018-04-20T09:01:53.858Z,6000
2018-04-20T09:02:19.515Z,6028
2018-04-20T09:02:45.038Z,6032
2018-04-20T09:03:10.561Z,6052
2018-04-20T09:03:36.172Z,6088
2018-04-20T09:04:01.744Z,6100
2018-04-20T09:04:27.242Z,6100
2018-04-20T09:04:52.766Z,6104
2018-04-20T09:05:18.263Z,6104
2018-04-20T09:05:43.965Z,6116
2018-04-20T09:06:09.758Z,6108
2018-04-20T09:06:35.244Z,6092
2018-04-20T09:07:01.010Z,6080
2018-04-20T09:07:26.463Z,6100
2018-04-20T09:07:51.969Z,6096
2018-04-20T09:08:17.560Z,6084
2018-04-20T09:08:43.257Z,6064
2018-04-20T09:09:09.066Z,6048
2018-04-20T09:09:34.754Z,6060
2018-04-20T09:10:00.209Z,6060
2018-04-20T09:10:25.873Z,6068
2018-04-20T09:10:51.558Z,6048
2018-04-20T09:11:17.169Z,6024
2018-04-20T09:11:42.701Z,6028
2018-04-20T09:12:08.292Z,6036
2018-04-20T09:12:33.920Z,6040
2018-04-20T09:12:59.414Z,6032
2018-04-20T09:13:25.053Z,6036
2018-04-20T09:13:50.538Z,6036
2018-04-20T09:14:16.163Z,6032
2018-04-20T09:14:41.557Z,6028
2018-04-20T09:15:07.373Z,6032
2018-04-20T09:15:32.885Z,6024
2018-04-20T09:15:58.481Z,6020
2018-04-20T09:16:24.131Z,6012
2018-04-20T09:16:49.703Z,6016
2018-04-20T09:17:15.294Z,6024
2018-04-20T09:17:40.801Z,6020
2018-04-20T09:18:06.383Z,6004
2018-04-20T09:18:31.873Z,6000
2018-04-20T09:18:57.524Z,6008
2018-04-20T09:19:23.082Z,6008
2018-04-20T09:19:48.648Z,5984
2018-04-20T09:20:14.552Z,5960
2018-04-20T09:20:39.969Z,5968
2018-04-20T09:21:05.578Z,5944
2018-04-20T09:21:31.203Z,5932
2018-04-20T09:21:56.979Z,5924
2018-04-20T09:22:22.487Z,5936
2018-04-20T09:22:47.940Z,5936
2018-04-20T09:23:13.503Z,5936
2018-04-20T09:23:39.040Z,5936
2018-04-20T09:24:04.749Z,5936
2018-04-20T09:24:30.205Z,5940
2018-04-20T09:24:55.752Z,5956
2018-04-20T09:25:21.318Z,5952
2018-04-20T09:25:46.779Z,5948
2018-04-20T09:26:12.339Z,5932
2018-04-20T09:26:38.054Z,5928
2018-04-20T09:27:03.516Z,5924
2018-04-20T09:27:29.126Z,5896
2018-04-20T09:27:54.624Z,5908
2018-04-20T09:28:20.036Z,5896
2018-04-20T09:28:45.577Z,5888
2018-04-20T09:29:11.037Z,5892
2018-04-20T09:29:36.531Z,5864
2018-04-20T09:30:01.976Z,5840
2018-04-20T09:30:27.472Z,5852
2018-04-20T09:30:53.022Z,5868
2018-04-20T09:31:18.524Z,5900
2018-04-20T09:31:43.999Z,5928
2018-04-20T09:32:09.636Z,5928
2018-04-20T09:32:35.163Z,5940
2018-04-20T09:33:00.664Z,5900
2018-04-20T09:33:26.203Z,5912
2018-04-20T09:33:51.705Z,5908
2018-04-20T09:34:17.167Z,5892
2018-04-20T09:34:42.858Z,5876
2018-04-20T09:35:08.351Z,5896
2018-04-20T09:35:33.745Z,5920
2018-04-20T09:35:59.240Z,5952
2018-04-20T09:36:24.848Z,5944
2018-04-20T09:36:50.321Z,5940
2018-04-20T09:37:15.699Z,5932
2018-04-20T09:37:41.199Z,5924
2018-04-20T09:38:06.835Z,5904
2018-04-20T09:38:32.608Z,5896
2018-04-20T09:38:58.044Z,5892
2018-04-20T09:39:23.635Z,5880
2018-04-20T09:39:49.216Z,5852
2018-04-20T09:40:15.013Z,5844
2018-04-20T09:40:40.649Z,5828
2018-04-20T09:41:06.352Z,5816
2018-04-20T09:41:31.797Z,5784
2018-04-20T09:41:57.402Z,5784
2018-04-20T09:42:22.955Z,5760
2018-04-20T09:42:48.579Z,5752
2018-04-20T09:43:14.094Z,5728
2018-04-20T09:43:39.646Z,5708
2018-04-20T09:44:05.191Z,5688
2018-04-20T09:44:30.723Z,5676
2018-04-20T09:44:56.212Z,5648
2018-04-20T09:45:21.693Z,5652
2018-04-20T09:45:47.185Z,5656
2018-04-20T09:46:12.771Z,5636
2018-04-20T09:46:38.203Z,5628
2018-04-20T09:47:03.681Z,5616
2018-04-20T09:47:29.151Z,5612
2018-04-20T09:47:54.617Z,5596
2018-04-20T09:48:20.060Z,5584
2018-04-20T09:48:45.601Z,5572
2018-04-20T09:49:11.121Z,5556
2018-04-20T09:49:36.604Z,5552
2018-04-20T09:50:02.094Z,5544
2018-04-20T09:50:27.566Z,5544
2018-04-20T09:50:53.088Z,5540
2018-04-20T09:51:18.612Z,5540
2018-04-20T09:51:44.113Z,5532
2018-04-20T09:52:09.781Z,5516
2018-04-20T09:52:35.204Z,5508
2018-04-20T09:53:00.681Z,5500
2018-04-20T09:53:26.196Z,5488
2018-04-20T09:53:51.632Z,5472
2018-04-20T09:54:17.123Z,5468
2018-04-20T09:54:42.736Z,5456
2018-04-20T09:55:08.104Z,5416
2018-04-20T09:55:33.628Z,5436
2018-04-20T09:55:59.078Z,5420
2018-04-20T09:56:24.582Z,5408
2018-04-20T09:56:50.022Z,5408
2018-04-20T09:57:15.553Z,5392
2018-04-20T09:57:41.006Z,5380
2018-04-20T09:58:06.469Z,5372
2018-04-20T09:58:31.961Z,5360
2018-04-20T09:58:57.445Z,5360
2018-04-20T09:59:22.930Z,5356
2018-04-20T09:59:48.439Z,5356
2018-04-20T10:00:13.849Z,5352
2018-04-20T10:00:39.543Z,5352
2018-04-20T10:01:05.095Z,5344
2018-04-20T10:01:30.549Z,5348
2018-04-20T10:01:56.050Z,5348
2018-04-20T10:02:21.677Z,5344
2018-04-20T10:02:46.984Z,5328
2018-04-20T10:03:12.592Z,5308
2018-04-20T10:03:38.170Z,5300
2018-04-20T10:04:03.674Z,5296
2018-04-20T10:04:29.139Z,5288
2018-04-20T10:04:54.647Z,5288
2018-04-20T10:05:20.185Z,5284
2018-04-20T10:05:45.834Z,5276
2018-04-20T10:06:11.374Z,5268
2018-04-20T10:06:36.907Z,5260
2018-04-20T10:07:02.433Z,5260